Aérodrome :
LOGIN :

S'inscrire | Disclaimer

   EN    FR    IT 

 










Légende :    VFR   VFR Marginal   IFR   IFR Intensif   IFR Très Intensif
Visi : 
Plafond : 
>= 8 km
>= 3000ft
5 à 8 km
1000 à 3000 ft
1500m à 5 km
500 à 1000 ft
800 à 1500m
200 à 500 ft
< 800m
< 200 ft
Symboles :   Orages  Brouillard  Fortes neiges  Fortes précipitations  Vent > 20 kt
SIGMETs :   Divers  Orages  Givrage  Turbulence  Onde Orograph.  Cendres Volcan.






- Altitude de l'aérodrome : 288 ft
- Code IATA : BZZ


EGVN - RAF Brize Norton

DERNIER METAR :
  • 211420Z 36009KT 9999 FEW022 BKN048 12/07 Q1021 NOSIG RMK BLU BLU

METARs EXPIRÉS :
  • 211350Z 01011KT 9999 FEW022 BKN048 12/08 Q1021 NOSIG RMK BLU BLU
  • 211320Z 01011KT 9999 FEW022 BKN048 12/07 Q1021 NOSIG RMK BLU BLU
  • 211250Z 02012KT 9999 FEW018 BKN045 12/08 Q1020 NOSIG RMK BLU BLU
  • 211220Z 01011KT 9999 FEW015 BKN044 BKN110 12/08 Q1020 NOSIG RMK BLU BLU
  • 211150Z 36011KT 9999 SCT015 BKN039 BKN110 11/09 Q1020 BECMG FEW015

TAF TAF EGVN
Valide du 21 à 15h jusqu'au 22 à 15h UTC


211337Z 2115/2215 36008KT 9999 SCT045
BECMG 2200/2203 5000 BR
PROB40 2204/2209 2000
BECMG 2208/2211 9999 NSW



MET'MAP, la Météo Aéronautique d'un coup d'oeil ! - Copyright ORBIFLY Décembre 2007 - Disclaimer

ORBIFLY MET'MAP TEAM :

Programmation & Développement : Alexandra Zaïnal
Conception & Développement : Baudouin d'Aumeries
Co-Programmation & Développement : Marc-Olivier Méhu
Soutien technique & logistique : Manuel Goepfert

Contact : metmap@orbifly.com




SOURCES & CREDITS :

   NOAA